sensor_id;sensor_type;location;lat;lon;timestamp;P1;durP1;ratioP1;P2;durP2;ratioP2
29218;SDS011;16421;50.202;7.852;2023-03-21T00:04:38;1.50;;;1.00;;
29218;SDS011;16421;50.202;7.852;2023-03-21T00:09:52;0.95;;;0.80;;
29218;SDS011;16421;50.202;7.852;2023-03-21T00:15:05;1.77;;;0.93;;
29218;SDS011;16421;50.202;7.852;2023-03-21T00:20:11;1.10;;;0.80;;
29218;SDS011;16421;50.202;7.852;2023-03-21T00:25:15;1.85;;;0.95;;
29218;SDS011;16421;50.202;7.852;2023-03-21T00:30:19;3.17;;;1.15;;
29218;SDS011;16421;50.202;7.852;2023-03-21T00:35:25;2.70;;;1.17;;
29218;SDS011;16421;50.202;7.852;2023-03-21T00:40:49;3.22;;;1.13;;
29218;SDS011;16421;50.202;7.852;2023-03-21T00:45:53;1.73;;;1.02;;
29218;SDS011;16421;50.202;7.852;2023-03-21T00:50:58;2.22;;;1.33;;
29218;SDS011;16421;50.202;7.852;2023-03-21T00:56:01;1.95;;;1.08;;
29218;SDS011;16421;50.202;7.852;2023-03-21T01:01:05;1.85;;;1.00;;
29218;SDS011;16421;50.202;7.852;2023-03-21T01:06:11;2.13;;;0.93;;
29218;SDS011;16421;50.202;7.852;2023-03-21T01:11:20;3.75;;;1.33;;
29218;SDS011;16421;50.202;7.852;2023-03-21T01:16:25;3.90;;;1.20;;
29218;SDS011;16421;50.202;7.852;2023-03-21T01:21:30;1.17;;;0.95;;
29218;SDS011;16421;50.202;7.852;2023-03-21T01:26:34;3.30;;;1.17;;
29218;SDS011;16421;50.202;7.852;2023-03-21T01:31:38;1.88;;;1.00;;
29218;SDS011;16421;50.202;7.852;2023-03-21T01:36:43;1.33;;;0.90;;
29218;SDS011;16421;50.202;7.852;2023-03-21T01:41:51;3.92;;;1.48;;
29218;SDS011;16421;50.202;7.852;2023-03-21T01:46:58;2.17;;;0.98;;
29218;SDS011;16421;50.202;7.852;2023-03-21T01:52:19;1.52;;;0.85;;
29218;SDS011;16421;50.202;7.852;2023-03-21T01:57:45;1.10;;;0.73;;
29218;SDS011;16421;50.202;7.852;2023-03-21T02:03:09;2.05;;;1.00;;
29218;SDS011;16421;50.202;7.852;2023-03-21T02:08:34;0.93;;;0.77;;
29218;SDS011;16421;50.202;7.852;2023-03-21T02:13:44;1.20;;;1.00;;
29218;SDS011;16421;50.202;7.852;2023-03-21T02:18:52;2.45;;;1.00;;
29218;SDS011;16421;50.202;7.852;2023-03-21T02:24:21;2.95;;;1.40;;
29218;SDS011;16421;50.202;7.852;2023-03-21T02:30:02;2.53;;;1.10;;
29218;SDS011;16421;50.202;7.852;2023-03-21T02:35:40;0.85;;;0.75;;
29218;SDS011;16421;50.202;7.852;2023-03-21T02:41:00;2.80;;;1.20;;
29218;SDS011;16421;50.202;7.852;2023-03-21T02:46:14;2.10;;;1.30;;
29218;SDS011;16421;50.202;7.852;2023-03-21T02:51:21;2.28;;;0.82;;
29218;SDS011;16421;50.202;7.852;2023-03-21T02:56:28;2.58;;;0.85;;
29218;SDS011;16421;50.202;7.852;2023-03-21T03:01:34;1.27;;;0.77;;
29218;SDS011;16421;50.202;7.852;2023-03-21T03:06:39;1.70;;;0.95;;
29218;SDS011;16421;50.202;7.852;2023-03-21T03:11:52;1.98;;;0.90;;
29218;SDS011;16421;50.202;7.852;2023-03-21T03:17:05;2.05;;;1.20;;
29218;SDS011;16421;50.202;7.852;2023-03-21T03:22:20;3.83;;;0.98;;
29218;SDS011;16421;50.202;7.852;2023-03-21T03:27:30;2.15;;;0.95;;
29218;SDS011;16421;50.202;7.852;2023-03-21T03:32:39;2.22;;;1.17;;
29218;SDS011;16421;50.202;7.852;2023-03-21T03:37:47;3.30;;;1.30;;
29218;SDS011;16421;50.202;7.852;2023-03-21T03:42:57;3.28;;;1.20;;
29218;SDS011;16421;50.202;7.852;2023-03-21T03:48:12;3.65;;;1.50;;
29218;SDS011;16421;50.202;7.852;2023-03-21T03:53:20;2.70;;;1.15;;
29218;SDS011;16421;50.202;7.852;2023-03-21T03:58:31;3.13;;;1.30;;
29218;SDS011;16421;50.202;7.852;2023-03-21T04:03:46;3.80;;;1.63;;
29218;SDS011;16421;50.202;7.852;2023-03-21T04:08:56;3.03;;;1.35;;
29218;SDS011;16421;50.202;7.852;2023-03-21T04:14:06;1.42;;;1.20;;
29218;SDS011;16421;50.202;7.852;2023-03-21T04:19:10;1.98;;;1.35;;
29218;SDS011;16421;50.202;7.852;2023-03-21T04:24:13;2.50;;;1.60;;
29218;SDS011;16421;50.202;7.852;2023-03-21T04:29:22;4.45;;;1.38;;
29218;SDS011;16421;50.202;7.852;2023-03-21T04:35:01;2.55;;;1.40;;
29218;SDS011;16421;50.202;7.852;2023-03-21T04:40:06;1.60;;;1.10;;
29218;SDS011;16421;50.202;7.852;2023-03-21T04:45:12;3.10;;;1.17;;
29218;SDS011;16421;50.202;7.852;2023-03-21T04:50:19;2.33;;;1.17;;
29218;SDS011;16421;50.202;7.852;2023-03-21T04:55:22;3.58;;;1.23;;
29218;SDS011;16421;50.202;7.852;2023-03-21T05:00:29;4.25;;;1.70;;
29218;SDS011;16421;50.202;7.852;2023-03-21T05:05:38;3.65;;;1.90;;
29218;SDS011;16421;50.202;7.852;2023-03-21T05:10:42;2.78;;;1.77;;
29218;SDS011;16421;50.202;7.852;2023-03-21T05:15:47;3.10;;;1.67;;
29218;SDS011;16421;50.202;7.852;2023-03-21T05:20:51;4.07;;;1.40;;
29218;SDS011;16421;50.202;7.852;2023-03-21T05:25:56;3.17;;;1.63;;
29218;SDS011;16421;50.202;7.852;2023-03-21T05:31:14;2.75;;;1.58;;
29218;SDS011;16421;50.202;7.852;2023-03-21T05:36:21;4.53;;;1.40;;
29218;SDS011;16421;50.202;7.852;2023-03-21T05:41:25;3.28;;;1.20;;
29218;SDS011;16421;50.202;7.852;2023-03-21T05:46:30;3.28;;;1.30;;
29218;SDS011;16421;50.202;7.852;2023-03-21T05:51:36;3.30;;;1.27;;
29218;SDS011;16421;50.202;7.852;2023-03-21T05:56:40;3.63;;;1.48;;
29218;SDS011;16421;50.202;7.852;2023-03-21T06:01:49;2.45;;;1.60;;
29218;SDS011;16421;50.202;7.852;2023-03-21T06:06:52;4.07;;;1.40;;
29218;SDS011;16421;50.202;7.852;2023-03-21T06:11:57;2.15;;;1.17;;
29218;SDS011;16421;50.202;7.852;2023-03-21T06:17:02;3.05;;;1.30;;
29218;SDS011;16421;50.202;7.852;2023-03-21T06:22:09;2.70;;;1.55;;
29218;SDS011;16421;50.202;7.852;2023-03-21T06:27:14;5.82;;;1.55;;
29218;SDS011;16421;50.202;7.852;2023-03-21T06:32:25;2.67;;;1.15;;
29218;SDS011;16421;50.202;7.852;2023-03-21T06:37:34;4.70;;;1.35;;
29218;SDS011;16421;50.202;7.852;2023-03-21T06:42:38;1.15;;;0.80;;
29218;SDS011;16421;50.202;7.852;2023-03-21T06:47:45;2.45;;;1.00;;
29218;SDS011;16421;50.202;7.852;2023-03-21T06:53:00;3.80;;;1.40;;
29218;SDS011;16421;50.202;7.852;2023-03-21T06:58:09;2.53;;;1.23;;
29218;SDS011;16421;50.202;7.852;2023-03-21T07:03:14;4.15;;;1.70;;
29218;SDS011;16421;50.202;7.852;2023-03-21T07:08:20;1.65;;;1.23;;
29218;SDS011;16421;50.202;7.852;2023-03-21T07:13:24;3.63;;;1.38;;
29218;SDS011;16421;50.202;7.852;2023-03-21T07:18:36;3.42;;;1.17;;
29218;SDS011;16421;50.202;7.852;2023-03-21T07:23:39;3.08;;;1.15;;
29218;SDS011;16421;50.202;7.852;2023-03-21T07:28:43;3.38;;;1.30;;
29218;SDS011;16421;50.202;7.852;2023-03-21T07:33:48;2.15;;;1.05;;
29218;SDS011;16421;50.202;7.852;2023-03-21T07:38:51;2.20;;;1.08;;
29218;SDS011;16421;50.202;7.852;2023-03-21T07:43:57;9.07;;;2.28;;
29218;SDS011;16421;50.202;7.852;2023-03-21T07:49:08;3.25;;;1.58;;
29218;SDS011;16421;50.202;7.852;2023-03-21T07:54:11;7.65;;;2.38;;
29218;SDS011;16421;50.202;7.852;2023-03-21T07:59:14;3.58;;;1.20;;
29218;SDS011;16421;50.202;7.852;2023-03-21T08:04:19;2.83;;;1.30;;
29218;SDS011;16421;50.202;7.852;2023-03-21T08:09:22;3.53;;;1.23;;
29218;SDS011;16421;50.202;7.852;2023-03-21T08:14:26;3.20;;;1.15;;
29218;SDS011;16421;50.202;7.852;2023-03-21T08:19:31;3.30;;;1.30;;
29218;SDS011;16421;50.202;7.852;2023-03-21T08:24:34;1.98;;;0.93;;
29218;SDS011;16421;50.202;7.852;2023-03-21T08:29:38;2.78;;;1.17;;
29218;SDS011;16421;50.202;7.852;2023-03-21T08:34:43;1.55;;;1.17;;
29218;SDS011;16421;50.202;7.852;2023-03-21T08:39:47;2.22;;;1.27;;
29218;SDS011;16421;50.202;7.852;2023-03-21T08:44:51;1.27;;;0.98;;
29218;SDS011;16421;50.202;7.852;2023-03-21T08:49:56;1.65;;;1.08;;
29218;SDS011;16421;50.202;7.852;2023-03-21T08:55:00;2.28;;;0.93;;
29218;SDS011;16421;50.202;7.852;2023-03-21T09:00:04;2.25;;;1.10;;
29218;SDS011;16421;50.202;7.852;2023-03-21T09:05:14;3.15;;;0.90;;
29218;SDS011;16421;50.202;7.852;2023-03-21T09:10:19;2.17;;;0.80;;
29218;SDS011;16421;50.202;7.852;2023-03-21T09:15:25;1.23;;;1.00;;
29218;SDS011;16421;50.202;7.852;2023-03-21T09:20:31;2.80;;;1.02;;
29218;SDS011;16421;50.202;7.852;2023-03-21T09:25:38;2.80;;;1.10;;
29218;SDS011;16421;50.202;7.852;2023-03-21T09:30:42;1.52;;;0.98;;
29218;SDS011;16421;50.202;7.852;2023-03-21T09:35:47;3.10;;;1.30;;
29218;SDS011;16421;50.202;7.852;2023-03-21T09:40:55;2.45;;;1.15;;
29218;SDS011;16421;50.202;7.852;2023-03-21T09:46:12;2.05;;;0.93;;
29218;SDS011;16421;50.202;7.852;2023-03-21T09:51:24;1.80;;;1.08;;
29218;SDS011;16421;50.202;7.852;2023-03-21T09:56:33;2.90;;;1.10;;
29218;SDS011;16421;50.202;7.852;2023-03-21T10:01:38;2.40;;;0.95;;
29218;SDS011;16421;50.202;7.852;2023-03-21T10:06:54;3.40;;;1.25;;
29218;SDS011;16421;50.202;7.852;2023-03-21T10:12:00;2.75;;;0.98;;
29218;SDS011;16421;50.202;7.852;2023-03-21T10:17:10;3.00;;;1.30;;
29218;SDS011;16421;50.202;7.852;2023-03-21T10:22:22;2.72;;;0.88;;
29218;SDS011;16421;50.202;7.852;2023-03-21T10:27:25;1.40;;;0.82;;
29218;SDS011;16421;50.202;7.852;2023-03-21T10:32:29;1.95;;;1.00;;
29218;SDS011;16421;50.202;7.852;2023-03-21T10:37:34;2.70;;;0.80;;
29218;SDS011;16421;50.202;7.852;2023-03-21T10:42:38;1.85;;;0.82;;
29218;SDS011;16421;50.202;7.852;2023-03-21T10:47:43;1.58;;;0.85;;
29218;SDS011;16421;50.202;7.852;2023-03-21T10:52:52;3.28;;;1.50;;
29218;SDS011;16421;50.202;7.852;2023-03-21T10:58:01;1.48;;;0.80;;
29218;SDS011;16421;50.202;7.852;2023-03-21T11:03:14;1.70;;;0.80;;
29218;SDS011;16421;50.202;7.852;2023-03-21T11:08:24;1.15;;;0.77;;
29218;SDS011;16421;50.202;7.852;2023-03-21T11:13:32;1.93;;;1.10;;
29218;SDS011;16421;50.202;7.852;2023-03-21T11:18:44;4.97;;;1.60;;
29218;SDS011;16421;50.202;7.852;2023-03-21T11:24:03;4.78;;;2.90;;
29218;SDS011;16421;50.202;7.852;2023-03-21T11:34:22;2.65;;;1.27;;
29218;SDS011;16421;50.202;7.852;2023-03-21T11:39:32;2.10;;;1.13;;
29218;SDS011;16421;50.202;7.852;2023-03-21T11:44:41;2.17;;;1.30;;
29218;SDS011;16421;50.202;7.852;2023-03-21T11:49:46;1.33;;;0.93;;
29218;SDS011;16421;50.202;7.852;2023-03-21T11:55:05;2.77;;;1.17;;
29218;SDS011;16421;50.202;7.852;2023-03-21T12:00:19;1.70;;;1.05;;
29218;SDS011;16421;50.202;7.852;2023-03-21T12:05:27;4.50;;;1.70;;
29218;SDS011;16421;50.202;7.852;2023-03-21T12:10:41;2.88;;;1.38;;
29218;SDS011;16421;50.202;7.852;2023-03-21T12:15:48;3.78;;;1.90;;
29218;SDS011;16421;50.202;7.852;2023-03-21T12:21:00;2.50;;;1.60;;
29218;SDS011;16421;50.202;7.852;2023-03-21T12:26:13;3.33;;;1.83;;
29218;SDS011;16421;50.202;7.852;2023-03-21T12:31:25;4.28;;;1.92;;
29218;SDS011;16421;50.202;7.852;2023-03-21T12:36:41;2.97;;;1.80;;
29218;SDS011;16421;50.202;7.852;2023-03-21T12:41:58;6.57;;;2.30;;
29218;SDS011;16421;50.202;7.852;2023-03-21T12:47:12;2.67;;;2.00;;
29218;SDS011;16421;50.202;7.852;2023-03-21T12:52:20;2.17;;;1.45;;
29218;SDS011;16421;50.202;7.852;2023-03-21T12:57:29;4.57;;;2.20;;
29218;SDS011;16421;50.202;7.852;2023-03-21T13:02:41;4.38;;;2.05;;
29218;SDS011;16421;50.202;7.852;2023-03-21T13:12:56;4.65;;;2.20;;
29218;SDS011;16421;50.202;7.852;2023-03-21T13:23:16;4.28;;;2.15;;
29218;SDS011;16421;50.202;7.852;2023-03-21T13:28:24;5.20;;;2.33;;
29218;SDS011;16421;50.202;7.852;2023-03-21T13:33:29;3.13;;;1.92;;
29218;SDS011;16421;50.202;7.852;2023-03-21T13:38:35;4.00;;;2.22;;
29218;SDS011;16421;50.202;7.852;2023-03-21T13:43:43;5.50;;;2.30;;
29218;SDS011;16421;50.202;7.852;2023-03-21T13:48:54;4.25;;;2.35;;
29218;SDS011;16421;50.202;7.852;2023-03-21T13:54:01;5.80;;;2.60;;
29218;SDS011;16421;50.202;7.852;2023-03-21T13:59:09;4.22;;;2.70;;
29218;SDS011;16421;50.202;7.852;2023-03-21T14:04:15;2.97;;;2.13;;
29218;SDS011;16421;50.202;7.852;2023-03-21T14:09:22;3.85;;;2.40;;
29218;SDS011;16421;50.202;7.852;2023-03-21T14:14:31;4.13;;;2.33;;
29218;SDS011;16421;50.202;7.852;2023-03-21T14:19:41;4.22;;;1.30;;
29218;SDS011;16421;50.202;7.852;2023-03-21T14:24:47;3.17;;;1.88;;
29218;SDS011;16421;50.202;7.852;2023-03-21T14:29:58;2.65;;;1.90;;
29218;SDS011;16421;50.202;7.852;2023-03-21T14:35:08;3.00;;;1.77;;
29218;SDS011;16421;50.202;7.852;2023-03-21T14:40:17;2.50;;;1.77;;
29218;SDS011;16421;50.202;7.852;2023-03-21T14:45:25;1.33;;;1.20;;
29218;SDS011;16421;50.202;7.852;2023-03-21T14:50:33;2.42;;;1.42;;
29218;SDS011;16421;50.202;7.852;2023-03-21T14:55:41;1.52;;;1.30;;
29218;SDS011;16421;50.202;7.852;2023-03-21T15:06:05;1.30;;;0.93;;
29218;SDS011;16421;50.202;7.852;2023-03-21T15:11:17;1.70;;;1.33;;
29218;SDS011;16421;50.202;7.852;2023-03-21T15:16:31;4.18;;;2.08;;
29218;SDS011;16421;50.202;7.852;2023-03-21T15:21:36;5.20;;;2.35;;
29218;SDS011;16421;50.202;7.852;2023-03-21T15:26:43;3.00;;;2.58;;
29218;SDS011;16421;50.202;7.852;2023-03-21T15:31:49;3.23;;;2.47;;
29218;SDS011;16421;50.202;7.852;2023-03-21T15:36:54;4.00;;;2.90;;
29218;SDS011;16421;50.202;7.852;2023-03-21T15:42:00;4.05;;;3.03;;
29218;SDS011;16421;50.202;7.852;2023-03-21T15:47:10;5.30;;;2.38;;
29218;SDS011;16421;50.202;7.852;2023-03-21T15:52:16;3.40;;;2.60;;
29218;SDS011;16421;50.202;7.852;2023-03-21T15:57:20;2.17;;;1.98;;
29218;SDS011;16421;50.202;7.852;2023-03-21T16:02:28;2.45;;;2.08;;
29218;SDS011;16421;50.202;7.852;2023-03-21T16:07:32;2.78;;;2.10;;
29218;SDS011;16421;50.202;7.852;2023-03-21T16:12:36;2.72;;;1.98;;
29218;SDS011;16421;50.202;7.852;2023-03-21T16:17:45;4.82;;;2.38;;
29218;SDS011;16421;50.202;7.852;2023-03-21T16:22:52;3.90;;;2.50;;
29218;SDS011;16421;50.202;7.852;2023-03-21T16:27:56;3.85;;;2.42;;
29218;SDS011;16421;50.202;7.852;2023-03-21T16:33:01;3.53;;;2.80;;
29218;SDS011;16421;50.202;7.852;2023-03-21T16:38:04;3.95;;;2.90;;
29218;SDS011;16421;50.202;7.852;2023-03-21T16:43:08;3.78;;;2.50;;
29218;SDS011;16421;50.202;7.852;2023-03-21T16:48:13;3.15;;;2.45;;
29218;SDS011;16421;50.202;7.852;2023-03-21T16:58:22;3.75;;;2.30;;
29218;SDS011;16421;50.202;7.852;2023-03-21T17:03:30;5.90;;;3.03;;
29218;SDS011;16421;50.202;7.852;2023-03-21T17:08:34;3.95;;;3.00;;
29218;SDS011;16421;50.202;7.852;2023-03-21T17:13:37;2.20;;;1.98;;
29218;SDS011;16421;50.202;7.852;2023-03-21T17:18:43;3.83;;;2.38;;
29218;SDS011;16421;50.202;7.852;2023-03-21T17:23:47;3.22;;;2.20;;
29218;SDS011;16421;50.202;7.852;2023-03-21T17:28:50;2.20;;;1.80;;
29218;SDS011;16421;50.202;7.852;2023-03-21T17:33:57;2.35;;;1.80;;
29218;SDS011;16421;50.202;7.852;2023-03-21T17:39:02;2.03;;;1.67;;
29218;SDS011;16421;50.202;7.852;2023-03-21T17:44:07;2.65;;;1.90;;
29218;SDS011;16421;50.202;7.852;2023-03-21T17:49:12;2.75;;;1.75;;
29218;SDS011;16421;50.202;7.852;2023-03-21T17:54:17;2.03;;;1.80;;
29218;SDS011;16421;50.202;7.852;2023-03-21T17:59:22;2.13;;;1.73;;
29218;SDS011;16421;50.202;7.852;2023-03-21T18:04:27;2.72;;;2.15;;
29218;SDS011;16421;50.202;7.852;2023-03-21T18:09:31;4.40;;;1.73;;
29218;SDS011;16421;50.202;7.852;2023-03-21T18:14:34;1.63;;;1.48;;
29218;SDS011;16421;50.202;7.852;2023-03-21T18:24:46;1.83;;;1.23;;
29218;SDS011;16421;50.202;7.852;2023-03-21T18:29:50;2.40;;;1.92;;
29218;SDS011;16421;50.202;7.852;2023-03-21T18:35:16;2.50;;;1.55;;
29218;SDS011;16421;50.202;7.852;2023-03-21T18:40:21;3.60;;;2.03;;
29218;SDS011;16421;50.202;7.852;2023-03-21T18:45:25;4.75;;;2.25;;
29218;SDS011;16421;50.202;7.852;2023-03-21T18:50:30;3.78;;;2.58;;
29218;SDS011;16421;50.202;7.852;2023-03-21T18:55:33;4.47;;;3.00;;
29218;SDS011;16421;50.202;7.852;2023-03-21T19:00:46;3.67;;;2.58;;
29218;SDS011;16421;50.202;7.852;2023-03-21T19:05:52;3.65;;;2.53;;
29218;SDS011;16421;50.202;7.852;2023-03-21T19:10:59;5.35;;;3.45;;
29218;SDS011;16421;50.202;7.852;2023-03-21T19:16:06;3.50;;;2.65;;
29218;SDS011;16421;50.202;7.852;2023-03-21T19:21:13;3.17;;;2.33;;
29218;SDS011;16421;50.202;7.852;2023-03-21T19:26:17;6.30;;;2.73;;
29218;SDS011;16421;50.202;7.852;2023-03-21T19:31:20;3.40;;;2.15;;
29218;SDS011;16421;50.202;7.852;2023-03-21T19:36:26;2.65;;;2.08;;
29218;SDS011;16421;50.202;7.852;2023-03-21T19:41:29;5.40;;;2.58;;
29218;SDS011;16421;50.202;7.852;2023-03-21T19:46:33;4.03;;;2.63;;
29218;SDS011;16421;50.202;7.852;2023-03-21T19:51:38;3.35;;;2.55;;
29218;SDS011;16421;50.202;7.852;2023-03-21T19:56:41;5.13;;;3.17;;
29218;SDS011;16421;50.202;7.852;2023-03-21T20:01:48;6.28;;;4.28;;
29218;SDS011;16421;50.202;7.852;2023-03-21T20:06:58;4.32;;;3.17;;
29218;SDS011;16421;50.202;7.852;2023-03-21T20:12:01;5.60;;;3.45;;
29218;SDS011;16421;50.202;7.852;2023-03-21T20:17:05;3.67;;;2.92;;
29218;SDS011;16421;50.202;7.852;2023-03-21T20:22:10;3.58;;;2.80;;
29218;SDS011;16421;50.202;7.852;2023-03-21T20:27:27;3.28;;;2.75;;
29218;SDS011;16421;50.202;7.852;2023-03-21T20:32:31;4.53;;;2.63;;
29218;SDS011;16421;50.202;7.852;2023-03-21T20:37:36;4.05;;;2.90;;
29218;SDS011;16421;50.202;7.852;2023-03-21T20:42:40;3.90;;;2.57;;
29218;SDS011;16421;50.202;7.852;2023-03-21T20:47:44;4.57;;;2.35;;
29218;SDS011;16421;50.202;7.852;2023-03-21T20:52:49;3.72;;;2.40;;
29218;SDS011;16421;50.202;7.852;2023-03-21T20:58:06;3.55;;;2.40;;
29218;SDS011;16421;50.202;7.852;2023-03-21T21:03:33;3.78;;;2.42;;
29218;SDS011;16421;50.202;7.852;2023-03-21T21:08:41;3.85;;;2.33;;
29218;SDS011;16421;50.202;7.852;2023-03-21T21:13:45;4.68;;;2.83;;
29218;SDS011;16421;50.202;7.852;2023-03-21T21:18:49;2.45;;;1.85;;
29218;SDS011;16421;50.202;7.852;2023-03-21T21:23:55;4.15;;;1.77;;
29218;SDS011;16421;50.202;7.852;2023-03-21T21:28:58;3.60;;;2.20;;
29218;SDS011;16421;50.202;7.852;2023-03-21T21:34:02;2.00;;;1.55;;
29218;SDS011;16421;50.202;7.852;2023-03-21T21:39:07;2.05;;;1.85;;
29218;SDS011;16421;50.202;7.852;2023-03-21T21:44:11;1.50;;;1.40;;
29218;SDS011;16421;50.202;7.852;2023-03-21T21:49:19;2.38;;;1.42;;
29218;SDS011;16421;50.202;7.852;2023-03-21T21:54:24;2.53;;;1.48;;
29218;SDS011;16421;50.202;7.852;2023-03-21T21:59:30;2.92;;;1.63;;
29218;SDS011;16421;50.202;7.852;2023-03-21T22:04:34;2.45;;;1.48;;
29218;SDS011;16421;50.202;7.852;2023-03-21T22:09:39;1.75;;;1.13;;
29218;SDS011;16421;50.202;7.852;2023-03-21T22:14:42;1.67;;;1.52;;
29218;SDS011;16421;50.202;7.852;2023-03-21T22:19:46;1.90;;;1.50;;
29218;SDS011;16421;50.202;7.852;2023-03-21T22:25:07;2.08;;;1.40;;
29218;SDS011;16421;50.202;7.852;2023-03-21T22:30:12;1.92;;;1.30;;
29218;SDS011;16421;50.202;7.852;2023-03-21T22:35:17;3.53;;;2.03;;
29218;SDS011;16421;50.202;7.852;2023-03-21T22:40:22;2.20;;;1.48;;
29218;SDS011;16421;50.202;7.852;2023-03-21T22:45:26;3.75;;;1.58;;
29218;SDS011;16421;50.202;7.852;2023-03-21T22:50:29;2.85;;;1.80;;
29218;SDS011;16421;50.202;7.852;2023-03-21T22:55:34;2.38;;;1.85;;
29218;SDS011;16421;50.202;7.852;2023-03-21T23:00:37;3.25;;;1.90;;
29218;SDS011;16421;50.202;7.852;2023-03-21T23:05:41;5.53;;;2.55;;
29218;SDS011;16421;50.202;7.852;2023-03-21T23:10:47;4.97;;;2.72;;
29218;SDS011;16421;50.202;7.852;2023-03-21T23:15:51;6.18;;;2.92;;
29218;SDS011;16421;50.202;7.852;2023-03-21T23:20:54;4.00;;;2.42;;
29218;SDS011;16421;50.202;7.852;2023-03-21T23:25:59;3.90;;;1.95;;
29218;SDS011;16421;50.202;7.852;2023-03-21T23:31:07;3.75;;;2.30;;
29218;SDS011;16421;50.202;7.852;2023-03-21T23:36:11;3.00;;;2.22;;
29218;SDS011;16421;50.202;7.852;2023-03-21T23:41:18;3.83;;;2.28;;
29218;SDS011;16421;50.202;7.852;2023-03-21T23:46:22;4.50;;;2.28;;
29218;SDS011;16421;50.202;7.852;2023-03-21T23:51:26;2.20;;;1.77;;
29218;SDS011;16421;50.202;7.852;2023-03-21T23:56:31;2.58;;;1.77;;
